Latest Weather Observations for Kalgoorlie-Boulder

IDW60801

Issued at 8:05 am WST Friday 25 July 2014 (issued every 30 minutes, with the page automatically refreshed every 10 minutes)

About weather observations | Map of weather stations | Latest weather observations for WA | Other Formats
Station Details ID: 012038 Name: KALGOORLIE-BOULDER AIRPORT Lat: -30.78 Lon: 121.45 Height: 365.3 m
Data from the previous 72 hours. | See also: Recent months at Kalgoorlie-Boulder
Date/Time
WST
Temp
°C
App
Temp
°C
Dew
Point
Rel
Hum
%
Delta-T
°C
Wind Press
QNH
hPa
Press
MSL
hPa
Rain
since 9 am
mm
Dir
 
Spd
km/h
Gust
km/h
Spd
kts
Gust
kts
25/08:00am 5.5 3.0 3.6 87 0.8 NNW 6 6 3 3 1024.0 - 0.0
25/07:30am 3.4 0.7 2.4 93 0.4 NNW 6 7 3 4 1023.8 - 0.0
25/07:00am 2.1 -1.0 1.6 96 0.2 NNW 7 7 4 4 1023.4 - 0.0
25/06:30am 2.2 -0.8 1.9 98 0.1 NNW 7 9 4 5 1022.9 - 0.0
25/06:00am 2.4 -1.0 1.6 94 0.3 WNW 9 13 5 7 1022.7 1022.9 0.0
25/05:30am 1.5 -0.8 0.7 94 0.3 WNW 2 7 1 4 1022.5 - 0.0
25/05:00am 1.6 -1.6 0.8 94 0.3 NW 7 9 4 5 1022.4 - 0.0
25/04:30am 2.0 -1.1 1.2 94 0.3 N 7 7 4 4 1022.2 - 0.0
25/04:00am 1.9 -1.2 1.1 94 0.3 NNW 7 7 4 4 1022.5 - 0.0
25/03:30am 2.4 -0.5 1.4 93 0.4 NNW 6 7 3 4 1022.5 - 0.0
25/03:00am 2.8 -0.3 1.5 91 0.5 NNW 7 7 4 4 1022.2 1022.4 0.0
25/02:30am 2.7 0.2 1.4 91 0.5 NW 4 6 2 3 1022.1 - 0.0
25/02:00am 2.9 -0.2 1.6 91 0.5 NW 7 9 4 5 1022.0 - 0.0
25/01:30am 3.3 0.5 1.8 90 0.6 NW 6 7 3 4 1021.9 - 0.0
25/01:00am 4.3 1.5 2.3 87 0.8 NW 6 7 3 4 1021.9 - 0.0
25/12:30am 4.9 2.2 2.5 84 1.0 NW 6 7 3 4 1021.9 - 0.0
25/12:00am 5.3 2.0 2.7 83 1.1 WSW 9 11 5 6 1022.1 1022.3 0.0
 
Date/Time
WST
Temp
°C
App
Temp
°C
Dew
Point
Rel
Hum
%
Delta-T
°C
Wind Press
QNH
hPa
Press
MSL
hPa
Rain
since 9 am
mm
Dir
 
Spd
km/h
Gust
km/h
Spd
kts
Gust
kts
24/11:30pm 6.1 2.9 2.8 79 1.4 W 9 9 5 5 1022.2 - 0.0
24/11:00pm 6.7 3.4 2.4 74 1.8 WSW 9 11 5 6 1022.2 - 0.0
24/10:30pm 7.3 3.6 2.6 72 2.0 WSW 11 13 6 7 1022.3 - 0.0
24/10:00pm 7.4 3.7 2.4 70 2.1 WSW 11 13 6 7 1022.1 - 0.0
24/09:30pm 8.0 4.7 2.3 67 2.4 W 9 13 5 7 1022.3 - 0.0
24/09:00pm 8.7 5.4 2.4 64 2.7 W 9 13 5 7 1022.0 1022.2 0.0
24/08:30pm 9.4 5.7 2.4 61 3.0 W 11 15 6 8 1021.8 - 0.0
24/08:00pm 9.0 6.2 3.0 66 2.6 W 7 11 4 6 1021.5 - 0.0
24/07:30pm 10.3 7.0 2.5 58 3.4 WSW 9 9 5 5 1021.2 - 0.0
24/07:00pm 11.0 7.7 2.3 55 3.8 SW 9 15 5 8 1020.9 - 0.0
24/06:30pm 11.2 7.9 2.6 55 3.8 WSW 9 11 5 6 1020.8 - 0.0
24/06:00pm 11.4 8.3 3.4 58 3.6 WSW 9 9 5 5 1020.3 1020.5 0.0
24/05:30pm 12.8 9.5 2.5 49 4.6 WSW 9 13 5 7 1020.0 - 0.0
24/05:00pm 14.4 9.8 1.8 42 5.6 SW 15 19 8 10 1019.7 - 0.0
24/04:30pm 15.6 10.6 1.2 37 6.4 WSW 17 26 9 14 1019.5 - 0.0
24/04:00pm 16.2 10.8 1.5 37 6.6 WSW 19 30 10 16 1019.3 - 0.0
24/03:30pm 16.3 11.2 1.0 35 6.8 WSW 17 22 9 12 1019.2 - 0.0
24/03:00pm 16.1 11.2 1.7 38 6.5 SW 17 24 9 13 1019.0 1019.1 0.0
24/02:30pm 15.8 10.4 2.4 40 6.1 SW 20 28 11 15 1018.9 - 0.0
24/02:00pm 15.5 10.1 2.3 41 6.0 SW 20 32 11 17 1018.9 - 0.0
24/01:30pm 15.5 9.8 2.9 42 5.8 WSW 22 33 12 18 1019.0 - 0.0
24/01:00pm 15.1 9.1 3.2 45 5.5 WSW 24 30 13 16 1019.1 - 0.0
24/12:30pm 14.4 8.4 3.3 47 5.1 WSW 24 33 13 18 1019.4 - 0.0
24/12:00pm 13.9 8.6 5.1 55 4.2 WSW 22 33 12 18 1020.0 1020.2 0.0
24/11:30am 12.6 6.3 5.7 63 3.3 WSW 28 35 15 19 1020.5 - 0.0
24/11:10am 12.3 8.1 7.4 72 2.4 WSW 19 30 10 16 1020.7 - 0.0
24/11:00am 12.0 7.9 7.8 75 2.1 WSW 19 26 10 14 1020.8 - 0.0
24/10:30am 10.7 6.8 8.7 87 1.0 W 19 24 10 13 1021.3 - 0.0
24/10:00am 9.3 6.9 8.5 95 0.4 W 11 15 6 8 1021.6 - 0.0
24/09:30am 8.2 5.2 7.8 97 0.2 W 13 17 7 9 1021.4 - 0.0
24/09:27am 8.2 5.2 7.8 97 0.2 W 13 17 7 9 1021.4 - 0.0
24/09:00am 7.3 4.5 7.1 99 0.1 W 11 19 6 10 1021.3 1021.4 0.2
24/08:53am 7.1 3.9 6.9 99 0.1 W 13 17 7 9 1021.2 - 0.2
24/08:30am 6.5 3.2 6.3 99 0.1 WNW 13 19 7 10 1020.8 - 0.2
24/08:22am 6.3 3.0 6.3 100 0.0 WNW 13 19 7 10 1020.8 - 0.2
24/08:00am 5.8 3.1 5.8 100 0.0 WNW 9 15 5 8 1020.3 - 0.2
24/07:30am 5.3 2.5 5.3 100 0.0 WNW 9 15 5 8 1019.9 - 0.2
24/07:16am 5.2 2.4 5.0 99 0.1 WNW 9 15 5 8 1019.9 - 0.2
24/07:11am 5.1 2.3 5.1 100 0.0 WNW 9 15 5 8 1019.8 - 0.2
24/07:00am 5.1 2.3 5.1 100 0.0 WNW 9 15 5 8 1019.8 - 0.2
24/06:30am 5.1 1.5 5.1 100 0.0 W 13 20 7 11 1019.6 - 0.2
24/06:16am 5.1 1.5 4.9 99 0.1 W 13 20 7 11 1019.4 - 0.2
24/06:00am 4.9 0.9 4.7 99 0.1 W 15 20 8 11 1019.3 1019.4 0.2
24/05:50am 5.0 0.9 4.5 97 0.2 W 15 20 8 11 1019.2 - 0.2
24/05:30am 4.0 0.5 3.5 97 0.2 WNW 11 15 6 8 1019.2 - 0.2
24/05:00am 3.5 0.7 3.0 97 0.2 NW 7 7 4 4 1019.1 - 0.2
24/04:30am 2.9 0.2 2.4 96 0.2 NNW 6 9 3 5 1019.2 - 0.2
24/04:00am 2.6 -0.4 2.1 96 0.2 N 7 9 4 5 1019.1 - 0.2
24/03:30am 2.8 0.1 2.6 99 0.1 N 6 7 3 4 1019.3 - 0.2
24/03:00am 3.8 1.1 2.8 93 0.4 NW 6 9 3 5 1019.2 1019.3 0.2
24/02:30am 4.6 1.5 3.4 92 0.5 WNW 9 13 5 7 1019.4 - 0.2
24/02:00am 5.1 1.6 3.7 91 0.6 WNW 11 17 6 9 1019.6 - 0.2
24/01:30am 5.1 2.0 3.7 91 0.6 WNW 9 13 5 7 1019.8 - 0.2
24/01:00am 4.9 1.8 3.5 91 0.6 WNW 9 13 5 7 1019.8 - 0.2
24/12:30am 5.3 2.2 3.7 89 0.7 WNW 9 13 5 7 1019.8 - 0.2
24/12:00am 5.8 2.3 3.7 86 0.9 WNW 11 13 6 7 1019.9 1020.1 0.2
 
Date/Time
WST
Temp
°C
App
Temp
°C
Dew
Point
Rel
Hum
%
Delta-T
°C
Wind Press
QNH
hPa
Press
MSL
hPa
Rain
since 9 am
mm
Dir
 
Spd
km/h
Gust
km/h
Spd
kts
Gust
kts
23/11:30pm 5.8 2.3 3.7 86 0.9 WNW 11 15 6 8 1020.0 - 0.2
23/11:00pm 5.8 2.8 3.9 88 0.8 WNW 9 11 5 6 1020.2 - 0.2
23/10:30pm 6.1 3.1 4.0 86 0.9 NW 9 11 5 6 1020.3 - 0.2
23/10:00pm 6.6 3.6 4.3 85 1.0 WNW 9 13 5 7 1020.5 - 0.2
23/09:30pm 7.3 4.0 4.6 83 1.2 WNW 11 17 6 9 1020.3 - 0.2
23/09:00pm 7.9 4.3 4.8 81 1.4 WNW 13 17 7 9 1020.3 1020.5 0.2
23/08:30pm 8.0 5.1 4.9 81 1.4 WNW 9 11 5 6 1020.3 - 0.2
23/08:00pm 9.0 4.6 4.8 75 1.9 W 17 22 9 12 1020.3 - 0.2
23/07:30pm 9.5 5.2 5.1 74 2.0 W 17 26 9 14 1020.1 - 0.2
23/07:00pm 10.4 5.4 4.7 68 2.6 W 20 30 11 16 1020.0 - 0.2
23/06:30pm 11.1 6.8 5.1 66 2.8 W 17 28 9 15 1019.7 - 0.2
23/06:00pm 11.2 7.8 5.9 70 2.5 WSW 13 19 7 10 1019.4 1019.5 0.2
23/05:30pm 11.7 6.9 5.8 67 2.8 WSW 20 30 11 16 1019.0 - 0.2
23/05:00pm 12.6 8.0 5.4 61 3.4 W 19 24 10 13 1018.8 - 0.2
23/04:30pm 13.7 8.9 5.6 58 3.9 SW 20 28 11 15 1018.6 - 0.2
23/04:00pm 13.0 8.9 6.2 63 3.3 WSW 17 26 9 14 1018.5 - 0.2
23/03:30pm 12.6 9.5 7.3 70 2.6 W 13 19 7 10 1018.4 - 0.2
23/03:00pm 13.0 8.4 6.7 65 3.1 SW 20 28 11 15 1018.3 1018.4 0.2
23/02:30pm 13.5 9.4 6.1 61 3.6 WSW 17 26 9 14 1018.3 - 0.2
23/02:00pm 13.5 9.4 6.3 61 3.5 WSW 17 22 9 12 1018.2 - 0.0
23/01:30pm 13.4 9.2 5.7 59 3.7 WSW 17 24 9 13 1018.1 - 0.0
23/01:00pm 13.7 9.6 6.1 60 3.7 SW 17 24 9 13 1017.9 - 0.0
23/12:30pm 13.0 9.6 5.9 62 3.4 SW 13 20 7 11 1017.9 - 0.0
23/12:00pm 12.1 7.9 5.6 64 3.1 SW 17 26 9 14 1018.4 1018.5 0.0
23/11:30am 12.2 8.0 5.9 65 3.0 SW 17 24 9 13 1019.2 - 0.0
23/11:00am 11.6 7.1 5.9 68 2.7 WSW 19 24 10 13 1019.7 - 0.0
23/10:30am 10.9 6.6 5.3 68 2.6 SW 17 26 9 14 1020.3 - 0.0
23/10:00am 10.7 5.1 5.6 71 2.4 SW 24 32 13 17 1020.8 - 0.0
23/09:30am 10.3 5.7 5.8 73 2.1 SW 19 30 10 16 1020.9 - 0.0
23/09:00am 9.8 5.1 6.0 77 1.8 SW 20 26 11 14 1020.3 1020.5 1.8
23/08:30am 8.6 3.9 6.0 84 1.2 WSW 20 26 11 14 1019.9 - 1.8
23/08:00am 8.8 3.9 5.1 77 1.7 SW 20 30 11 16 1019.6 - 1.8
23/07:30am 8.6 4.3 5.1 79 1.6 SW 17 20 9 11 1019.2 - 1.8
23/07:00am 8.3 4.4 5.2 81 1.4 WSW 15 22 8 12 1019.0 - 1.8
23/06:30am 8.5 4.1 4.7 77 1.7 WSW 17 24 9 13 1018.6 - 1.8
23/06:00am 8.6 3.8 4.8 77 1.7 WSW 19 24 10 13 1018.4 1018.5 1.8
23/05:30am 8.6 4.2 4.8 77 1.7 WSW 17 22 9 12 1018.0 - 1.8
23/05:00am 8.6 4.2 4.6 76 1.8 WSW 17 24 9 13 1017.7 - 1.8
23/04:30am 8.6 3.9 5.3 80 1.5 SSW 19 26 10 14 1017.6 - 1.8
23/04:00am 8.7 3.4 5.2 79 1.6 SW 22 32 12 17 1017.4 - 1.8
23/03:30am 8.4 4.1 5.3 81 1.4 WSW 17 22 9 12 1017.4 - 1.8
23/03:00am 8.1 3.8 5.2 82 1.3 WSW 17 26 9 14 1017.4 1017.6 1.8
23/02:30am 7.5 2.8 5.1 85 1.1 SW 19 28 10 15 1017.0 - 1.8
23/02:00am 7.4 2.5 5.0 85 1.1 WSW 20 28 11 15 1017.1 - 1.8
23/01:30am 7.1 2.7 4.9 86 1.0 W 17 24 9 13 1017.3 - 1.8
23/01:00am 6.8 2.7 4.5 85 1.0 W 15 20 8 11 1017.3 - 1.8
23/12:30am 7.0 2.9 4.3 83 1.2 W 15 20 8 11 1017.2 - 1.8
23/12:00am 6.9 3.2 4.4 84 1.1 WNW 13 19 7 10 1017.2 1017.4 1.8
 
Date/Time
WST
Temp
°C
App
Temp
°C
Dew
Point
Rel
Hum
%
Delta-T
°C
Wind Press
QNH
hPa
Press
MSL
hPa
Rain
since 9 am
mm
Dir
 
Spd
km/h
Gust
km/h
Spd
kts
Gust
kts
22/11:30pm 7.1 3.3 4.1 81 1.3 WNW 13 19 7 10 1017.4 - 1.8
22/11:00pm 7.4 4.4 4.2 80 1.4 WNW 9 15 5 8 1017.8 - 1.8
22/10:30pm 6.8 3.4 4.1 83 1.2 WNW 11 13 6 7 1017.7 - 1.8
22/10:00pm 7.2 3.9 4.3 82 1.3 WNW 11 15 6 8 1017.6 - 1.8
22/09:30pm 7.6 3.9 4.2 79 1.5 W 13 19 7 10 1017.4 - 1.8
22/09:00pm 7.7 4.8 4.6 81 1.4 WNW 9 17 5 9 1017.3 1017.5 1.8
22/08:30pm 7.9 5.1 5.0 82 1.3 WNW 9 11 5 6 1017.3 - 1.8
22/08:00pm 8.6 5.7 4.4 75 1.9 W 9 13 5 7 1017.0 - 1.8
22/07:30pm 9.2 5.5 4.3 71 2.2 W 13 19 7 10 1016.7 - 1.8
22/07:00pm 9.0 5.7 4.8 75 1.9 W 11 17 6 9 1016.4 - 1.8
22/06:30pm 9.5 6.0 5.4 75 1.9 W 13 19 7 10 1016.0 - 1.8
22/06:00pm 9.1 5.1 4.9 75 1.9 WSW 15 20 8 11 1015.5 1015.6 1.8
22/05:45pm 9.6 2.2 4.8 72 2.2 WSW 33 52 18 28 1015.4 - 1.8
22/05:41pm 10.0 1.1 5.0 71 2.3 WSW 41 52 22 28 1015.4 - 1.8
22/05:30pm 10.1 6.4 6.1 76 1.9 WSW 15 20 8 11 1015.0 - 1.4
22/05:00pm 10.8 6.9 6.9 77 1.9 W 17 24 9 13 1014.4 - 1.4
22/04:30pm 10.7 7.4 7.9 83 1.4 W 15 20 8 11 1014.0 - 1.4
22/04:09pm 10.2 6.5 8.0 86 1.1 WSW 17 22 9 12 1013.8 - 1.4
22/04:00pm 10.0 6.1 7.3 83 1.3 SW 17 32 9 17 1013.7 - 1.4
22/03:52pm 9.7 3.8 7.4 85 1.1 SW 28 46 15 25 1013.8 - 1.2
22/03:51pm 9.8 3.1 7.5 85 1.1 SW 32 46 17 25 1013.7 - 1.2
22/03:50pm 10.1 2.8 7.4 83 1.3 SW 35 46 19 25 1013.7 - 0.8
22/03:30pm 13.7 9.4 5.1 56 4.1 WSW 17 28 9 15 1013.1 - 0.0
22/03:00pm 13.6 9.1 4.4 53 4.3 WNW 17 26 9 14 1012.9 1013.0 0.0
22/02:30pm 13.0 7.5 4.2 55 4.1 WSW 22 32 12 17 1012.8 - 0.0
22/02:00pm 12.9 6.6 4.0 54 4.1 W 26 37 14 20 1012.7 - 0.0
22/01:30pm 13.1 7.3 4.3 55 4.1 WSW 24 35 13 19 1012.7 - 0.0
22/01:00pm 12.6 6.2 5.0 60 3.6 W 28 37 15 20 1012.7 - 0.0
22/12:30pm 13.2 6.9 5.5 59 3.7 W 28 39 15 21 1012.9 - 0.0
22/12:00pm 13.2 7.0 6.2 62 3.4 W 28 41 15 22 1013.1 1013.2 0.0
22/11:30am 11.7 7.9 7.4 75 2.1 WNW 17 30 9 16 1013.7 - 0.0
22/11:00am 12.7 6.8 5.6 62 3.4 W 26 41 14 22 1014.2 - 0.0
22/10:30am 13.1 7.6 5.8 61 3.5 W 24 41 13 22 1014.3 - 0.0
22/10:00am 11.3 6.7 5.6 68 2.7 WNW 19 26 10 14 1014.9 - 0.0
22/09:30am 10.6 8.0 6.0 73 2.2 NNW 9 15 5 8 1014.5 - 0.0
22/09:00am 9.4 6.4 5.8 78 1.7 NW 11 17 6 9 1014.7 1014.7 0.2
22/08:30am 8.7 5.3 5.7 81 1.4 N 13 17 7 9 1014.4 - 0.2

Other Formats:

Comma delimited format used in spreadsheet applications
http://www.bom.gov.au/fwo/IDW60801/IDW60801.94637.axf

JavaScript Object Notation format (JSON) in row-major order
http://www.bom.gov.au/fwo/IDW60801/IDW60801.94637.json